Time;durP1;ratioP1;P1;durP2;ratioP2;P2;SDS_P1;SDS_P2;PMS_P1;PMS_P2;Temp;Humidity;BMP_temperature;BMP_pressure;BME280_temperature;BME280_humidity;BME280_pressure;Samples;Min_cycle;Max_cycle;Signal;HPM_P1;HPM_P2
2021/01/06 00:00:45;;;;;;;;;12.75;10.50;;;;;11.98;52.79;97910.69;6006488;22;102473;-76
2021/01/06 00:03:13;;;;;;;;;9.25;8.75;;;;;11.97;52.54;97911.75;5991717;22;102449;-75
2021/01/06 00:05:40;;;;;;;;;4.00;4.00;;;;;11.97;52.36;97914.47;5977048;22;102984;-75
2021/01/06 00:08:07;;;;;;;;;11.50;8.50;;;;;11.94;52.31;97912.19;5967197;22;103654;-75
2021/01/06 00:10:34;;;;;;;;;9.75;9.00;;;;;11.95;52.93;97924.69;5969302;22;102560;-75
2021/01/06 00:13:01;;;;;;;;;8.25;7.00;;;;;11.93;52.62;97926.81;5973006;22;102728;-75
2021/01/06 00:15:30;;;;;;;;;12.75;11.75;;;;;11.92;52.57;97936.00;6002715;22;102815;-75
2021/01/06 00:17:57;;;;;;;;;13.25;10.50;;;;;11.93;52.32;97930.31;5966884;22;105389;-75
2021/01/06 00:20:26;;;;;;;;;8.75;8.75;;;;;11.91;52.88;97934.31;6002163;22;102531;-75
2021/01/06 00:22:53;;;;;;;;;12.25;10.25;;;;;11.89;52.47;97920.16;5995016;22;102732;-75
2021/01/06 00:25:28;;;;;;;;;10.25;9.00;;;;;11.88;52.41;97927.50;5998124;22;102922;-75
2021/01/06 00:27:55;;;;;;;;;10.25;8.50;;;;;11.88;52.18;97930.19;5970380;22;103655;-75
2021/01/06 00:30:36;;;;;;;;;10.50;9.25;;;;;11.89;52.03;97926.41;5998408;22;102761;-75
2021/01/06 00:33:04;;;;;;;;;11.75;8.00;;;;;11.89;52.48;97926.41;5974169;22;102735;-75
2021/01/06 00:35:31;;;;;;;;;7.50;6.25;;;;;11.89;52.41;97934.53;6005104;22;102793;-75
2021/01/06 00:37:58;;;;;;;;;10.00;9.00;;;;;11.87;52.56;97933.97;5969291;22;104307;-75
2021/01/06 00:40:29;;;;;;;;;12.25;8.75;;;;;11.85;52.42;97930.63;6002204;22;102661;-75
2021/01/06 00:43:01;;;;;;;;;12.25;8.75;;;;;11.86;52.12;97936.88;6003617;22;102814;-75
2021/01/06 00:45:27;;;;;;;;;8.50;7.00;;;;;11.87;52.45;97939.38;6002329;22;104023;-75
2021/01/06 00:47:55;;;;;;;;;13.25;9.50;;;;;11.87;52.10;97935.84;5966727;22;103778;-75
2021/01/06 00:50:22;;;;;;;;;9.50;8.25;;;;;11.85;52.11;97933.34;5996667;22;102827;-75
2021/01/06 00:52:49;;;;;;;;;11.25;8.50;;;;;11.86;51.90;97945.00;5979406;22;102473;-75
2021/01/06 00:55:16;;;;;;;;;8.50;8.50;;;;;11.85;52.37;97940.63;5996585;22;102928;-75
2021/01/06 00:57:43;;;;;;;;;10.25;9.25;;;;;11.86;52.18;97936.88;5973167;22;104381;-75
2021/01/06 01:00:14;;;;;;;;;9.00;8.00;;;;;11.85;52.45;97940.63;5972394;22;102832;-75
2021/01/06 01:02:44;;;;;;;;;7.25;7.00;;;;;11.84;52.07;97936.28;5988853;22;102604;-75
2021/01/06 01:05:12;;;;;;;;;12.00;8.50;;;;;11.84;52.30;97944.41;5988760;22;102803;-75
2021/01/06 01:07:39;;;;;;;;;14.25;6.50;;;;;11.83;51.98;97953.59;5995511;22;103932;-75
2021/01/06 01:10:07;;;;;;;;;11.75;9.00;;;;;11.83;52.06;97943.59;5953077;22;102549;-76
2021/01/06 01:12:35;;;;;;;;;8.00;7.50;;;;;11.83;52.06;97943.59;5999714;22;104525;-75
2021/01/06 01:15:06;;;;;;;;;8.25;7.50;;;;;11.82;52.46;97938.38;5999828;22;102865;-75
2021/01/06 01:17:35;;;;;;;;;11.00;8.00;;;;;11.82;51.91;97936.50;5995288;22;104009;-75
2021/01/06 01:20:05;;;;;;;;;12.25;8.25;;;;;11.79;51.74;97931.56;5993463;22;102718;-75
2021/01/06 01:22:33;;;;;;;;;12.25;8.00;;;;;11.81;51.94;97944.84;5994854;22;102391;-75
2021/01/06 01:25:07;;;;;;;;;10.00;8.00;;;;;11.82;51.56;97946.50;5998983;22;102583;-75
2021/01/06 01:27:35;;;;;;;;;8.50;8.00;;;;;11.80;52.43;97943.19;5999132;22;103430;-75
2021/01/06 01:30:07;;;;;;;;;9.25;8.00;;;;;11.80;52.56;97935.88;5954005;22;102768;-75
2021/01/06 01:32:36;;;;;;;;;8.75;7.75;;;;;11.81;51.79;97931.31;5971552;22;102874;-75
2021/01/06 01:35:05;;;;;;;;;9.25;8.25;;;;;11.79;51.92;97936.97;5955665;22;102891;-76
2021/01/06 01:37:34;;;;;;;;;9.25;9.00;;;;;11.77;51.89;97930.94;5983698;22;103595;-75
2021/01/06 01:40:04;;;;;;;;;11.50;7.50;;;;;11.78;52.04;97934.47;5954888;22;102524;-75
2021/01/06 01:42:30;;;;;;;;;8.50;8.00;;;;;11.74;51.89;97928.69;5993843;22;102924;-75
2021/01/06 01:45:02;;;;;;;;;7.75;7.00;;;;;11.76;51.84;97931.97;6001426;22;102712;-75
2021/01/06 01:47:39;;;;;;;;;8.00;7.25;;;;;11.77;51.54;97927.41;5973362;22;104407;-75
2021/01/06 01:50:07;;;;;;;;;7.00;7.00;;;;;11.75;51.75;97935.75;5999741;22;102662;-75
2021/01/06 01:52:40;;;;;;;;;7.00;6.25;;;;;11.73;52.02;97934.31;5999772;22;102631;-75
2021/01/06 01:55:07;;;;;;;;;11.00;9.00;;;;;11.74;51.98;97941.41;6002778;22;102614;-76
2021/01/06 01:57:37;;;;;;;;;7.75;7.00;;;;;11.75;51.85;97934.94;5977485;22;104440;-76
2021/01/06 02:00:15;;;;;;;;;8.00;8.00;;;;;11.73;51.69;97931.59;5970618;22;102934;-76
2021/01/06 02:03:04;;;;;;;;;8.25;7.00;;;;;11.73;52.11;97927.03;5943333;22;102527;-75
2021/01/06 02:05:38;;;;;;;;;9.25;6.75;;;;;11.72;51.94;97922.66;5973998;22;102828;-75
2021/01/06 02:08:10;;;;;;;;;7.50;6.75;;;;;11.73;51.77;97923.47;5971746;22;104735;-75
2021/01/06 02:10:41;;;;;;;;;8.75;6.25;;;;;11.73;51.64;97926.19;5986272;22;102550;-75
2021/01/06 02:13:21;;;;;;;;;9.00;7.75;;;;;11.74;52.04;97922.44;5995314;22;102874;-75
2021/01/06 02:16:10;;;;;;;;;8.00;6.00;;;;;11.71;52.36;97923.66;5911000;22;109110;-75
2021/01/06 02:18:39;;;;;;;;;8.25;8.25;;;;;11.71;52.15;97917.44;5999488;22;108775;-75
2021/01/06 02:21:18;;;;;;;;;9.25;8.00;;;;;11.72;52.17;97921.78;5971554;22;102666;-75
2021/01/06 02:23:50;;;;;;;;;6.50;6.00;;;;;11.72;51.94;97929.91;5910555;22;104658;-75
2021/01/06 02:26:19;;;;;;;;;10.75;7.25;;;;;11.70;51.91;97926.63;6005960;22;102639;-75
2021/01/06 02:28:47;;;;;;;;;11.75;8.00;;;;;11.71;51.98;97928.28;5971523;22;105820;-75
2021/01/06 02:31:17;;;;;;;;;10.75;7.00;;;;;11.69;51.90;97930.38;5972125;22;102767;-75
2021/01/06 02:33:46;;;;;;;;;9.25;8.00;;;;;11.68;52.11;97923.28;5999808;22;102695;-76
2021/01/06 02:36:15;;;;;;;;;7.25;6.25;;;;;11.70;52.04;97926.63;5972280;22;102897;-76
2021/01/06 02:38:44;;;;;;;;;7.50;5.75;;;;;11.70;51.86;97927.44;5997381;22;104071;-75
2021/01/06 02:41:13;;;;;;;;;6.75;5.00;;;;;11.67;51.87;97930.59;5970653;22;102799;-75
2021/01/06 02:43:42;;;;;;;;;8.00;5.50;;;;;11.69;51.68;97935.78;5994325;22;102908;-75
2021/01/06 02:46:12;;;;;;;;;6.00;5.25;;;;;11.67;51.63;97935.16;5999234;22;102882;-75
2021/01/06 02:48:41;;;;;;;;;7.50;6.50;;;;;11.67;52.10;97933.28;5997464;22;108587;-75
2021/01/06 02:51:13;;;;;;;;;8.75;7.25;;;;;11.67;51.49;97929.75;5971816;22;102493;-75
2021/01/06 02:53:46;;;;;;;;;8.75;7.75;;;;;11.67;51.83;97927.03;5989791;22;102880;-75
2021/01/06 02:56:12;;;;;;;;;9.75;7.00;;;;;11.66;52.00;97931.66;6098055;22;102923;-75
2021/01/06 02:58:39;;;;;;;;;9.50;8.25;;;;;11.64;51.84;97939.16;6099867;22;103543;-75
2021/01/06 03:01:10;;;;;;;;;8.50;7.75;;;;;11.63;51.43;97938.34;6092874;22;102884;-75
2021/01/06 03:03:39;;;;;;;;;10.50;6.00;;;;;11.64;51.59;97934.59;5966840;22;102861;-75
2021/01/06 03:06:32;;;;;;;;;8.00;6.75;;;;;11.64;52.16;97934.59;6072295;22;102885;-75
2021/01/06 03:09:00;;;;;;;;;10.50;7.00;;;;;11.64;51.58;97945.41;5986763;22;109229;-75
2021/01/06 03:11:28;;;;;;;;;10.75;8.00;;;;;11.63;52.21;97932.91;5967737;22;102422;-75
2021/01/06 03:13:55;;;;;;;;;5.50;5.00;;;;;11.61;51.87;97932.34;6091405;22;102675;-75
2021/01/06 03:16:22;;;;;;;;;5.75;5.00;;;;;11.62;51.61;97936.69;5957330;22;102774;-76
2021/01/06 03:18:49;;;;;;;;;7.75;6.50;;;;;11.63;51.88;97938.34;5959805;22;104243;-75
2021/01/06 03:21:15;;;;;;;;;8.00;7.00;;;;;11.63;52.07;97932.91;6114488;22;102742;-75
2021/01/06 03:23:49;;;;;;;;;7.00;6.00;;;;;11.63;51.87;97937.50;6113671;22;102513;-75
2021/01/06 03:26:16;;;;;;;;;6.25;5.50;;;;;11.61;52.11;97934.22;6070639;22;102744;-75
2021/01/06 03:28:44;;;;;;;;;8.25;6.75;;;;;11.62;51.44;97936.69;6067616;22;105634;-75
2021/01/06 03:31:13;;;;;;;;;8.75;8.00;;;;;11.60;52.15;97927.97;6070892;22;102640;-75
2021/01/06 03:33:47;;;;;;;;;10.00;6.75;;;;;11.61;51.99;97926.91;6089229;22;102854;-76
2021/01/06 03:36:18;;;;;;;;;8.50;6.75;;;;;11.62;51.91;97917.72;6087922;22;102843;-75
2021/01/06 03:39:03;;;;;;;;;8.50;7.00;;;;;11.60;51.64;97910.88;6055642;22;103829;-75
2021/01/06 03:41:30;;;;;;;;;6.50;6.00;;;;;11.57;51.68;97914.84;6044506;22;102585;-75
2021/01/06 03:44:03;;;;;;;;;8.50;7.00;;;;;11.58;51.89;97915.69;6069417;22;102789;-75
2021/01/06 03:46:34;;;;;;;;;7.00;6.00;;;;;11.57;51.51;97917.56;5963791;22;102624;-76
2021/01/06 03:49:31;;;;;;;;;6.25;5.50;;;;;11.58;52.07;97916.50;6068558;22;103695;-75
2021/01/06 03:52:28;;;;;;;;;3.50;3.50;;;;;11.57;52.05;97922.97;5899991;22;102875;-75
2021/01/06 03:55:24;;;;;;;;;7.00;6.25;;;;;11.57;51.74;97917.56;5923887;22;102703;-75
2021/01/06 03:57:52;;;;;;;;;8.25;6.00;;;;;11.56;51.57;97915.94;5905057;22;102744;-76
2021/01/06 04:00:45;;;;;;;;;7.25;6.75;;;;;11.57;51.64;97916.75;5973760;22;104311;-75
2021/01/06 04:03:26;;;;;;;;;7.00;6.75;;;;;11.57;52.04;97924.88;5989448;22;102802;-75
2021/01/06 04:05:52;;;;;;;;;6.00;5.00;;;;;11.56;51.62;97915.09;6002995;22;102546;-76
2021/01/06 04:08:22;;;;;;;;;6.50;6.00;;;;;11.55;51.63;97918.84;5972270;22;102876;-75
2021/01/06 04:10:52;;;;;;;;;11.75;7.75;;;;;11.53;51.91;97913.66;5973270;22;103865;-76
2021/01/06 04:13:19;;;;;;;;;6.50;5.75;;;;;11.56;51.79;97915.94;5992044;22;102550;-76
2021/01/06 04:15:46;;;;;;;;;7.75;6.75;;;;;11.60;51.30;97909.00;5994098;22;105450;-75
2021/01/06 04:18:13;;;;;;;;;6.00;5.00;;;;;11.64;51.96;97907.50;6002911;22;102805;-75
2021/01/06 04:20:40;;;;;;;;;7.00;5.50;;;;;11.67;51.56;97899.97;6002274;22;104128;-75
2021/01/06 04:23:09;;;;;;;;;5.00;4.00;;;;;11.71;51.59;97901.19;5962024;22;102543;-75
2021/01/06 04:25:38;;;;;;;;;7.75;6.00;;;;;11.73;51.44;97904.53;5972201;22;108740;-75
2021/01/06 04:28:06;;;;;;;;;5.50;4.00;;;;;11.76;51.44;97898.66;6000376;22;102762;-76
2021/01/06 04:30:42;;;;;;;;;6.75;5.75;;;;;11.77;51.37;97900.31;5996175;22;104252;-75
2021/01/06 04:33:13;;;;;;;;;7.00;5.75;;;;;11.77;51.21;97901.13;5971543;22;102567;-76
2021/01/06 04:35:40;;;;;;;;;5.00;5.00;;;;;11.79;51.29;97900.94;5997007;22;102776;-75
2021/01/06 04:38:07;;;;;;;;;5.00;4.00;;;;;11.79;50.70;97896.34;5996369;22;103038;-76
2021/01/06 04:40:36;;;;;;;;;4.25;4.00;;;;;11.83;51.38;97902.13;5998731;22;103512;-75
2021/01/06 04:43:15;;;;;;;;;7.00;5.75;;;;;11.82;51.51;97900.47;5974694;22;102690;-75
2021/01/06 04:45:44;;;;;;;;;7.00;5.75;;;;;11.85;51.62;97902.72;5993565;22;102742;-75
2021/01/06 04:48:19;;;;;;;;;8.00;7.00;;;;;11.84;50.81;97906.50;5978314;22;104004;-76
2021/01/06 04:51:32;;;;;;;;;5.25;5.25;;;;;11.86;51.21;97898.94;5898375;22;108275;-76
2021/01/06 04:54:35;;;;;;;;;7.00;5.00;;;;;11.84;50.86;97906.50;5908890;22;102845;-76
2021/01/06 04:57:14;;;;;;;;;6.25;5.75;;;;;11.84;51.43;97906.50;5857574;22;102643;-75
2021/01/06 05:00:08;;;;;;;;;6.50;5.25;;;;;11.81;51.29;97891.50;6001667;22;102896;-75
2021/01/06 05:03:16;;;;;;;;;8.75;6.75;;;;;11.81;51.14;97901.50;5917287;22;108491;-76
2021/01/06 05:06:01;;;;;;;;;7.75;5.00;;;;;11.83;51.17;97907.53;5899343;22;102936;-75
2021/01/06 05:08:33;;;;;;;;;5.50;5.50;;;;;11.82;50.88;97911.31;6000813;22;102873;-75
2021/01/06 05:11:24;;;;;;;;;9.00;7.25;;;;;11.82;51.34;97897.75;6001118;22;102827;-75
2021/01/06 05:14:03;;;;;;;;;5.25;4.50;;;;;11.83;51.12;97904.84;5890717;22;109228;-76
2021/01/06 05:16:35;;;;;;;;;6.50;5.50;;;;;11.81;50.95;97907.75;6004949;22;102505;-76
2021/01/06 05:19:03;;;;;;;;;6.00;5.25;;;;;11.81;51.29;97909.63;5998912;22;102794;-75
2021/01/06 05:21:30;;;;;;;;;5.50;4.75;;;;;11.80;50.91;97911.50;5976896;22;103084;-75
2021/01/06 05:24:03;;;;;;;;;6.75;5.00;;;;;11.79;50.71;97909.06;5997461;22;104057;-76
2021/01/06 05:26:30;;;;;;;;;5.50;4.50;;;;;11.78;51.59;97913.63;5976921;22;102889;-76
2021/01/06 05:28:57;;;;;;;;;7.00;6.00;;;;;11.78;51.65;97919.06;5991721;22;102830;-76
2021/01/06 05:31:23;;;;;;;;;7.00;6.00;;;;;11.78;51.30;97926.34;5961556;22;102866;-76
2021/01/06 05:33:51;;;;;;;;;5.25;4.25;;;;;11.77;51.51;97917.38;5952443;22;103902;-75
2021/01/06 05:36:24;;;;;;;;;5.50;4.50;;;;;11.77;51.21;97925.53;5955886;22;102531;-76
2021/01/06 05:38:51;;;;;;;;;6.25;5.25;;;;;11.75;51.28;97914.09;5973528;22;102778;-76
2021/01/06 05:41:17;;;;;;;;;6.75;4.75;;;;;11.73;51.17;97920.78;5971120;22;102685;-75
2021/01/06 05:43:45;;;;;;;;;6.75;6.25;;;;;11.70;51.63;97913.06;5995719;22;105930;-75
2021/01/06 05:46:20;;;;;;;;;7.75;6.75;;;;;11.72;51.29;97914.53;5969473;22;103067;-75
2021/01/06 05:48:50;;;;;;;;;7.00;5.75;;;;;11.71;51.25;97920.16;5969539;22;102697;-75
2021/01/06 05:51:33;;;;;;;;;7.00;5.25;;;;;11.70;51.33;97927.44;5998843;22;102983;-75
2021/01/06 05:54:14;;;;;;;;;5.50;4.50;;;;;11.69;51.11;97930.38;5993673;22;104238;-75
2021/01/06 05:57:20;;;;;;;;;9.75;6.25;;;;;11.71;51.28;97923.66;5997715;22;102656;-76
2021/01/06 05:59:47;;;;;;;;;5.50;4.25;;;;;11.71;51.65;97915.53;5911667;22;102987;-75
2021/01/06 06:02:23;;;;;;;;;6.25;5.75;;;;;11.71;51.45;97912.03;5988432;22;102903;-75
2021/01/06 06:05:18;;;;;;;;;5.75;5.00;;;;;11.69;51.40;97909.53;5995725;22;103863;-75
2021/01/06 06:08:22;;;;;;;;;7.00;6.00;;;;;11.71;51.28;97906.63;5985133;22;102750;-76
2021/01/06 06:11:20;;;;;;;;;6.00;4.50;;;;;11.71;51.52;97909.31;5847347;22;103781;-76
2021/01/06 06:14:02;;;;;;;;;6.00;5.00;;;;;11.69;51.35;97908.72;5980913;22;102870;-75
2021/01/06 06:16:39;;;;;;;;;6.50;5.50;;;;;11.68;51.09;97915.16;5972213;22;103745;-76
2021/01/06 06:19:28;;;;;;;;;7.00;6.00;;;;;11.67;51.74;97916.22;5955103;22;102751;-75
2021/01/06 06:22:25;;;;;;;;;7.00;5.25;;;;;11.66;51.43;97912.72;5891315;22;102775;-75
2021/01/06 06:25:19;;;;;;;;;9.50;5.00;;;;;11.64;51.33;97912.91;5870922;22;102803;-75
2021/01/06 06:28:21;;;;;;;;;6.25;6.00;;;;;11.66;51.58;97914.59;5986499;22;109194;-76
2021/01/06 06:30:53;;;;;;;;;7.50;6.75;;;;;11.66;51.41;97911.88;6024284;22;102783;-76
2021/01/06 06:33:29;;;;;;;;;6.00;6.00;;;;;11.64;51.47;97912.09;5970860;22;102727;-75
2021/01/06 06:35:56;;;;;;;;;5.50;5.50;;;;;11.63;51.30;97913.97;5994565;22;102828;-76
2021/01/06 06:38:48;;;;;;;;;4.00;4.00;;;;;11.64;51.59;97912.91;5969001;22;103763;-75
2021/01/06 06:41:34;;;;;;;;;7.25;5.00;;;;;11.64;51.11;97914.78;5985322;22;102934;-75
2021/01/06 06:44:26;;;;;;;;;6.00;5.50;;;;;11.63;51.72;97913.97;5972379;22;102852;-75
2021/01/06 06:47:14;;;;;;;;;5.00;5.00;;;;;11.64;51.50;97912.91;5850441;22;102794;-75
2021/01/06 06:50:07;;;;;;;;;6.00;5.00;;;;;11.63;51.51;97919.38;5977199;22;109209;-75
2021/01/06 06:52:44;;;;;;;;;5.50;5.00;;;;;11.61;51.54;97920.66;5913033;22;104017;-75
2021/01/06 06:55:45;;;;;;;;;4.75;4.75;;;;;11.59;51.59;97910.06;6086222;22;102836;-76
2021/01/06 06:58:45;;;;;;;;;5.00;4.25;;;;;11.61;50.94;97910.66;5834379;22;102878;-76
2021/01/06 07:01:14;;;;;;;;;6.00;5.00;;;;;11.61;51.36;97912.56;5885707;22;108270;-75
2021/01/06 07:03:44;;;;;;;;;8.50;8.00;;;;;11.61;51.00;97896.31;5980766;22;102643;-75
2021/01/06 07:06:12;;;;;;;;;5.00;5.00;;;;;11.57;51.55;97906.72;6100183;22;102780;-75
2021/01/06 07:08:49;;;;;;;;;5.50;5.50;;;;;11.59;51.32;97904.63;6100977;22;102802;-75
2021/01/06 07:11:32;;;;;;;;;8.75;6.00;;;;;11.58;50.97;97902.16;6118248;22;110002;-75
2021/01/06 07:14:07;;;;;;;;;4.75;4.75;;;;;11.58;51.41;97905.69;5977645;22;102975;-75
2021/01/06 07:17:21;;;;;;;;;5.75;4.75;;;;;11.60;51.32;97905.47;5974731;22;102825;-75
2021/01/06 07:19:48;;;;;;;;;5.00;4.25;;;;;11.58;51.28;97905.69;5960333;22;102986;-75
2021/01/06 07:22:58;;;;;;;;;6.00;5.25;;;;;11.58;51.33;97905.69;5972319;22;103952;-76
2021/01/06 07:25:34;;;;;;;;;5.50;5.00;;;;;11.58;51.09;97908.38;5815156;22;104912;-75
2021/01/06 07:28:02;;;;;;;;;6.00;5.00;;;;;11.57;51.57;97914.84;5971792;22;102910;-75
2021/01/06 07:30:36;;;;;;;;;6.00;5.50;;;;;11.56;51.42;97921.34;6101299;22;102878;-75
2021/01/06 07:33:29;;;;;;;;;5.50;5.50;;;;;11.58;51.43;97927.34;6069857;22;103950;-75
2021/01/06 07:36:17;;;;;;;;;5.00;4.25;;;;;11.58;51.59;97940.06;5999340;22;102778;-75
2021/01/06 07:38:44;;;;;;;;;5.75;4.00;;;;;11.57;51.22;97938.41;6060752;22;102853;-75
2021/01/06 07:41:12;;;;;;;;;5.50;5.50;;;;;11.57;51.48;97944.63;6102027;22;102858;-75
2021/01/06 07:43:44;;;;;;;;;7.00;6.00;;;;;11.56;51.00;97937.59;6094455;22;103161;-75
2021/01/06 07:46:14;;;;;;;;;5.00;5.00;;;;;11.55;51.09;97941.34;5975655;22;102667;-75
2021/01/06 07:48:44;;;;;;;;;6.25;6.00;;;;;11.56;51.28;97934.06;5975047;22;102767;-75
2021/01/06 07:51:16;;;;;;;;;7.00;5.50;;;;;11.56;51.35;97931.34;5973722;22;102827;-75
2021/01/06 07:54:09;;;;;;;;;4.25;4.25;;;;;11.56;51.43;97929.47;6065333;22;109337;-75
2021/01/06 07:57:02;;;;;;;;;5.00;5.00;;;;;11.55;51.38;97932.38;5995739;22;103078;-75
2021/01/06 07:59:44;;;;;;;;;5.50;5.50;;;;;11.53;51.47;97932.59;5889504;22;102681;-76
2021/01/06 08:02:22;;;;;;;;;8.00;4.75;;;;;11.55;51.16;97937.81;5975387;22;102814;-77
2021/01/06 08:04:48;;;;;;;;;5.25;5.25;;;;;11.55;51.30;97935.09;5969104;22;109142;-75
2021/01/06 08:07:16;;;;;;;;;6.75;6.00;;;;;11.55;51.31;97929.69;5963253;22;102733;-75
2021/01/06 08:09:43;;;;;;;;;7.25;4.00;;;;;11.55;51.40;97935.94;6077610;22;102863;-75
2021/01/06 08:12:40;;;;;;;;;7.25;7.00;;;;;11.53;51.33;97921.78;6099335;22;102846;-75
2021/01/06 08:15:09;;;;;;;;;5.25;5.25;;;;;11.56;51.27;97934.88;6025154;22;109655;-75
2021/01/06 08:17:47;;;;;;;;;4.75;4.00;;;;;11.56;51.53;97920.50;6097179;22;103600;-75
2021/01/06 08:20:20;;;;;;;;;6.50;5.25;;;;;11.55;50.99;97925.09;6076313;22;102669;-75
2021/01/06 08:22:57;;;;;;;;;6.00;6.00;;;;;11.56;51.20;97915.09;6095205;22;102875;-75
2021/01/06 08:25:30;;;;;;;;;5.25;3.25;;;;;11.55;51.21;97919.69;5973409;22;103986;-75
2021/01/06 08:27:57;;;;;;;;;4.50;4.25;;;;;11.55;51.39;97913.44;6071920;22;102772;-75
2021/01/06 08:30:28;;;;;;;;;7.00;5.50;;;;;11.56;51.10;97901.56;5972422;22;102841;-75
2021/01/06 08:33:07;;;;;;;;;4.50;3.00;;;;;11.56;51.46;97909.69;5972126;22;102981;-75
2021/01/06 08:35:37;;;;;;;;;6.00;5.50;;;;;11.53;50.84;97900.09;6096565;22;104092;-75
2021/01/06 08:38:04;;;;;;;;;5.75;4.50;;;;;11.54;51.25;97912.59;6069581;22;102631;-75
2021/01/06 08:40:35;;;;;;;;;5.50;4.50;;;;;11.53;51.50;97913.66;6096318;22;102948;-75
2021/01/06 08:43:12;;;;;;;;;5.25;4.50;;;;;11.55;51.14;97902.59;5979081;22;102544;-75
2021/01/06 08:45:54;;;;;;;;;4.75;4.75;;;;;11.55;50.91;97899.91;5973226;22;104376;-75
2021/01/06 08:48:30;;;;;;;;;6.25;5.00;;;;;11.54;51.38;97890.94;5991055;22;102785;-75
2021/01/06 08:51:05;;;;;;;;;4.50;4.00;;;;;11.54;51.24;97887.41;5970918;22;102583;-75
2021/01/06 08:53:34;;;;;;;;;7.00;6.00;;;;;11.52;51.24;97898.47;6067847;22;103005;-75
2021/01/06 08:56:03;;;;;;;;;5.00;5.00;;;;;11.50;51.35;97895.16;6097516;22;103870;-75
2021/01/06 08:58:49;;;;;;;;;6.75;5.75;;;;;11.50;51.12;97905.16;5973183;22;102789;-75
2021/01/06 09:01:40;;;;;;;;;6.00;4.50;;;;;11.51;51.13;97909.53;6102500;22;102672;-75
2021/01/06 09:04:12;;;;;;;;;4.00;4.00;;;;;11.51;51.46;97918.47;6034275;22;102810;-75
2021/01/06 09:07:06;;;;;;;;;6.25;5.25;;;;;11.50;50.99;97924.94;5974728;22;104223;-75
2021/01/06 09:09:39;;;;;;;;;6.00;4.75;;;;;11.49;51.45;97919.72;5991021;22;102835;-75
2021/01/06 09:12:28;;;;;;;;;6.00;6.00;;;;;11.50;51.37;97933.06;6069631;22;102919;-75
2021/01/06 09:14:56;;;;;;;;;6.75;4.25;;;;;11.47;51.01;97922.69;5971390;22;102738;-75
2021/01/06 09:17:36;;;;;;;;;7.25;6.00;;;;;11.50;51.49;97940.34;6100639;22;104163;-75
2021/01/06 09:20:11;;;;;;;;;7.00;5.00;;;;;11.49;51.41;97928.69;6070910;22;102565;-75
2021/01/06 09:22:40;;;;;;;;;5.25;5.00;;;;;11.49;51.21;97931.41;6068482;22;102886;-75
2021/01/06 09:25:08;;;;;;;;;5.75;4.75;;;;;11.49;51.39;97933.25;5947187;22;102857;-75
2021/01/06 09:27:39;;;;;;;;;8.00;5.75;;;;;11.49;51.16;97923.28;6068555;22;104310;-75
2021/01/06 09:30:19;;;;;;;;;5.00;5.00;;;;;11.50;51.07;97926.81;5973162;22;102906;-75
2021/01/06 09:32:46;;;;;;;;;7.50;7.00;;;;;11.50;51.28;97921.41;5967181;22;102627;-76
2021/01/06 09:35:19;;;;;;;;;5.00;5.00;;;;;11.49;50.84;97919.72;6001623;22;102785;-74
2021/01/06 09:37:56;;;;;;;;;6.75;5.25;;;;;11.50;51.44;97911.41;6094901;22;109328;-76
2021/01/06 09:40:23;;;;;;;;;6.00;6.00;;;;;11.56;51.92;97899.69;6024516;22;102598;-77
2021/01/06 09:42:55;;;;;;;;;8.25;5.75;;;;;11.68;55.43;97901.63;5946024;22;102558;-74
2021/01/06 09:45:23;;;;;;;;;7.00;6.00;;;;;11.76;58.56;97894.06;6071061;22;102685;-75
2021/01/06 09:47:52;;;;;;;;;7.75;6.00;;;;;11.82;58.04;97892.34;6068472;22;104733;-75
2021/01/06 09:50:25;;;;;;;;;9.50;7.25;;;;;11.85;58.25;97891.88;6062296;22;102720;-75
2021/01/06 09:52:52;;;;;;;;;11.50;9.25;;;;;11.87;58.43;97884.38;6095758;22;102775;-74
2021/01/06 09:55:23;;;;;;;;;13.25;9.25;;;;;11.86;58.12;97882.69;6101388;22;102784;-75
2021/01/06 09:58:14;;;;;;;;;9.25;9.25;;;;;11.85;58.47;97870.19;6073775;22;103501;-74
2021/01/06 10:01:10;;;;;;;;;10.00;8.00;;;;;11.85;57.87;97859.38;6087856;22;102543;-75
2021/01/06 10:03:39;;;;;;;;;8.50;7.00;;;;;11.82;58.46;97859.84;5912703;22;102790;-74
2021/01/06 10:06:29;;;;;;;;;10.75;8.00;;;;;11.82;57.95;97854.41;5975148;22;102792;-74
2021/01/06 10:09:07;;;;;;;;;12.75;11.00;;;;;11.81;58.05;97844.63;5962061;22;109188;-74
2021/01/06 10:11:55;;;;;;;;;9.25;7.00;;;;;11.80;57.25;97834.84;6087428;22;102577;-74
2021/01/06 10:14:48;;;;;;;;;14.25;9.25;;;;;11.80;57.29;97826.72;5849675;22;102859;-74
2021/01/06 10:17:33;;;;;;;;;12.50;9.00;;;;;11.78;57.04;97816.13;6064647;22;102876;-74
2021/01/06 10:20:25;;;;;;;;;7.25;7.00;;;;;11.80;56.97;97818.59;5840094;22;108504;-75
2021/01/06 10:22:54;;;;;;;;;9.00;8.25;;;;;11.81;56.72;97804.00;5976006;22;102899;-74
2021/01/06 10:25:59;;;;;;;;;11.50;10.00;;;;;11.83;56.11;97807.31;5971350;22;104824;-74
2021/01/06 10:28:30;;;;;;;;;13.75;12.00;;;;;11.83;56.27;97808.16;5895925;22;102819;-75
2021/01/06 10:31:15;;;;;;;;;13.75;12.75;;;;;11.86;57.44;97806.84;5971173;22;104417;-75
2021/01/06 10:34:00;;;;;;;;;11.25;9.50;;;;;11.85;57.45;97806.03;5969022;22;102665;-75
2021/01/06 10:36:45;;;;;;;;;11.25;11.25;;;;;11.87;57.42;97803.09;5892088;22;102733;-75
2021/01/06 10:39:41;;;;;;;;;11.00;9.50;;;;;11.86;56.82;97798.72;5968629;22;102838;-74
2021/01/06 10:42:21;;;;;;;;;13.00;12.00;;;;;11.86;56.97;97791.44;5987612;22;109253;-75
2021/01/06 10:44:52;;;;;;;;;14.75;12.25;;;;;11.86;56.75;97787.91;6099587;22;102847;-74
2021/01/06 10:47:31;;;;;;;;;12.00;11.25;;;;;11.86;57.00;97785.19;5975144;22;102646;-74
2021/01/06 10:50:26;;;;;;;;;11.75;11.75;;;;;11.83;57.41;97777.53;5977020;22;102959;-74
2021/01/06 10:53:15;;;;;;;;;12.75;10.75;;;;;11.83;57.43;97774.81;5923090;22;109479;-74
2021/01/06 10:56:03;;;;;;;;;12.25;11.00;;;;;11.84;56.89;97776.47;6095960;22;102625;-75
2021/01/06 10:58:44;;;;;;;;;11.75;10.00;;;;;11.83;57.16;97769.41;5970320;22;102569;-74
2021/01/06 11:01:38;;;;;;;;;16.00;12.75;;;;;11.83;56.91;97761.28;6121009;22;102780;-75
2021/01/06 11:04:07;;;;;;;;;12.00;11.00;;;;;11.81;57.24;97756.06;5919717;22;108812;-75
2021/01/06 11:07:04;;;;;;;;;12.00;9.25;;;;;11.81;57.55;97753.38;6113966;22;102655;-75
2021/01/06 11:09:55;;;;;;;;;10.25;8.00;;;;;11.81;57.29;97739.00;6021090;22;102839;-75
2021/01/06 11:12:28;;;;;;;;;11.00;8.25;;;;;11.80;57.36;97737.34;6029361;22;102978;-74
2021/01/06 11:15:21;;;;;;;;;10.75;9.00;;;;;11.81;57.26;97728.16;6099228;22;104091;-75
2021/01/06 11:18:12;;;;;;;;;10.25;9.00;;;;;11.80;57.40;97723.78;6061324;22;102739;-74
2021/01/06 11:20:39;;;;;;;;;10.50;8.75;;;;;11.82;57.48;97724.41;6088156;22;102515;-74
2021/01/06 11:23:42;;;;;;;;;11.25;9.50;;;;;11.82;57.12;97727.13;6107899;22;102741;-75
2021/01/06 11:26:23;;;;;;;;;10.50;9.25;;;;;11.82;57.87;97721.69;5910675;22;108783;-74
2021/01/06 11:28:59;;;;;;;;;13.00;9.50;;;;;11.83;57.35;97724.19;6080829;22;102827;-75
2021/01/06 11:31:28;;;;;;;;;10.00;8.25;;;;;11.81;57.69;97731.69;6092161;22;102835;-74
2021/01/06 11:34:11;;;;;;;;;14.25;9.50;;;;;11.81;57.73;97722.75;6096859;22;102623;-74
2021/01/06 11:36:44;;;;;;;;;11.75;9.50;;;;;11.81;57.48;97720.88;6090722;22;104393;-75
2021/01/06 11:39:26;;;;;;;;;13.00;8.75;;;;;11.80;57.84;97715.66;6095923;22;103113;-74
2021/01/06 11:42:00;;;;;;;;;8.25;8.00;;;;;11.78;57.96;97720.50;6006922;22;103038;-74
2021/01/06 11:44:41;;;;;;;;;13.00;8.25;;;;;11.77;57.91;97725.09;6089547;22;104866;-74
2021/01/06 11:47:52;;;;;;;;;7.00;5.00;;;;;11.80;57.46;97715.66;6089742;22;104063;-74
2021/01/06 11:50:38;;;;;;;;;13.25;9.25;;;;;11.81;57.42;97706.50;5961800;22;103036;-74
2021/01/06 11:53:08;;;;;;;;;11.50;10.50;;;;;11.80;57.74;97694.84;5987172;22;102793;-75
2021/01/06 11:55:48;;;;;;;;;9.50;9.00;;;;;11.89;58.89;97698.03;5943608;22;102681;-76
2021/01/06 11:58:22;;;;;;;;;11.25;8.25;;;;;12.10;59.99;97704.81;5937678;22;103794;-76
2021/01/06 12:01:31;;;;;;;;;13.00;11.50;;;;;12.22;60.04;97709.19;5958868;22;102897;-74
2021/01/06 12:04:12;;;;;;;;;20.75;17.25;;;;;12.28;59.59;97715.56;5859911;22;102901;-75